createdAt,value
2019-03-15T00:00:54.286Z,9.40
2019-03-15T00:05:12.450Z,9.40
2019-03-15T00:09:30.543Z,9.30
2019-03-15T00:13:48.801Z,9.30
2019-03-15T00:18:07.402Z,9.20
2019-03-15T00:22:25.512Z,9.20
2019-03-15T00:26:43.935Z,9.10
2019-03-15T00:31:02.145Z,9.10
2019-03-15T00:35:20.348Z,9.10
2019-03-15T00:39:38.687Z,9.00
2019-03-15T00:43:56.901Z,9.00
2019-03-15T00:48:15.185Z,9.00
2019-03-15T00:52:33.369Z,8.90
2019-03-15T00:56:52.057Z,8.90
2019-03-15T01:01:10.343Z,8.90
2019-03-15T01:05:28.475Z,8.80
2019-03-15T01:09:46.597Z,8.80
2019-03-15T01:14:04.875Z,8.80
2019-03-15T01:18:23.080Z,8.80
2019-03-15T01:22:41.979Z,8.80
2019-03-15T01:27:00.007Z,8.70
2019-03-15T01:31:18.347Z,8.80
2019-03-15T01:35:36.836Z,8.80
2019-03-15T01:39:55.115Z,8.80
2019-03-15T01:44:13.750Z,8.80
2019-03-15T01:48:32.035Z,8.80
2019-03-15T01:52:50.571Z,8.90
2019-03-15T01:57:09.027Z,8.90
2019-03-15T02:01:27.184Z,8.90
2019-03-15T02:05:45.353Z,8.90
2019-03-15T02:10:04.209Z,8.90
2019-03-15T02:14:22.474Z,8.90
2019-03-15T02:18:41.123Z,8.90
2019-03-15T02:22:59.292Z,9.00
2019-03-15T02:27:17.929Z,9.00
2019-03-15T02:31:36.814Z,9.00
2019-03-15T02:35:54.972Z,9.00
2019-03-15T02:40:13.227Z,9.10
2019-03-15T02:44:31.823Z,9.10
2019-03-15T02:48:50.053Z,9.10
2019-03-15T02:53:09.047Z,9.20
2019-03-15T02:57:27.925Z,9.20
2019-03-15T03:01:46.078Z,9.30
2019-03-15T03:06:04.164Z,9.30
2019-03-15T03:10:22.362Z,9.30
2019-03-15T03:14:40.735Z,9.30
2019-03-15T03:18:59.274Z,9.30
2019-03-15T03:23:17.434Z,9.30
2019-03-15T03:27:35.796Z,9.30
2019-03-15T03:31:54.022Z,9.30
2019-03-15T03:36:12.908Z,9.20
2019-03-15T03:40:31.639Z,9.20
2019-03-15T03:44:49.790Z,9.10
2019-03-15T03:49:08.007Z,9.10
2019-03-15T03:53:26.509Z,9.00
2019-03-15T03:57:44.686Z,8.90
2019-03-15T04:02:02.830Z,8.90
2019-03-15T04:06:21.019Z,8.80
2019-03-15T04:10:39.095Z,8.80
2019-03-15T04:14:57.276Z,8.80
2019-03-15T04:19:15.902Z,8.70
2019-03-15T04:23:38.207Z,8.70
2019-03-15T04:27:56.051Z,8.60
2019-03-15T04:32:14.224Z,8.60
2019-03-15T04:36:33.038Z,8.60
2019-03-15T04:40:51.264Z,8.60
2019-03-15T04:45:09.860Z,8.60
2019-03-15T04:49:28.600Z,8.60
2019-03-15T04:53:46.813Z,8.60
2019-03-15T04:58:05.387Z,8.70
2019-03-15T05:02:23.550Z,8.70
2019-03-15T05:06:41.785Z,8.70
2019-03-15T05:10:59.835Z,8.70
2019-03-15T05:15:17.931Z,8.70
2019-03-15T05:19:36.567Z,8.70
2019-03-15T05:23:54.850Z,8.70
2019-03-15T05:28:13.021Z,8.80
2019-03-15T05:32:31.637Z,8.80
2019-03-15T05:36:51.363Z,8.90
2019-03-15T05:41:10.833Z,8.90
2019-03-15T05:45:29.499Z,9.00
2019-03-15T05:49:48.235Z,9.00
2019-03-15T05:54:06.424Z,9.00
2019-03-15T05:58:24.644Z,9.00
2019-03-15T06:02:42.992Z,9.00
2019-03-15T06:07:01.719Z,9.00
2019-03-15T06:11:19.816Z,9.00
2019-03-15T06:15:38.599Z,9.00
2019-03-15T06:19:57.624Z,9.00
2019-03-15T06:24:16.137Z,9.00
2019-03-15T06:28:34.447Z,9.00
2019-03-15T06:32:53.912Z,9.00
2019-03-15T06:37:13.580Z,9.00
2019-03-15T06:41:31.966Z,9.10
2019-03-15T06:45:50.292Z,9.10
2019-03-15T06:50:08.376Z,9.10
2019-03-15T06:54:26.658Z,9.10
2019-03-15T06:58:44.920Z,9.10
2019-03-15T07:03:03.578Z,9.00
2019-03-15T07:07:21.900Z,9.00
2019-03-15T07:11:40.088Z,9.00
2019-03-15T07:15:59.038Z,9.00
2019-03-15T07:20:17.481Z,9.00
2019-03-15T07:24:35.794Z,8.90
2019-03-15T07:28:58.471Z,8.90
2019-03-15T07:33:21.439Z,8.90
2019-03-15T07:37:45.559Z,8.90
2019-03-15T07:42:16.299Z,8.90
2019-03-15T07:46:34.459Z,8.90
2019-03-15T07:50:52.952Z,8.90
2019-03-15T07:55:14.896Z,8.90
2019-03-15T07:59:40.591Z,9.00
2019-03-15T08:04:28.262Z,9.00
2019-03-15T08:08:57.663Z,9.00
2019-03-15T08:13:34.688Z,9.00
2019-03-15T08:18:16.686Z,9.00
2019-03-15T08:23:03.370Z,9.00
2019-03-15T08:27:49.446Z,9.00
2019-03-15T08:32:25.803Z,9.10
2019-03-15T08:36:54.798Z,9.10
2019-03-15T08:41:22.700Z,9.20
2019-03-15T08:45:50.817Z,9.20
2019-03-15T08:50:15.060Z,9.20
2019-03-15T08:54:32.592Z,9.30
2019-03-15T08:58:50.741Z,9.30
2019-03-15T09:03:08.841Z,9.30
2019-03-15T09:07:27.413Z,9.40
2019-03-15T09:11:46.194Z,9.40
2019-03-15T09:16:04.391Z,9.50
2019-03-15T09:20:22.624Z,9.50
2019-03-15T09:24:40.971Z,9.60
2019-03-15T09:28:59.225Z,9.60
2019-03-15T09:33:17.372Z,9.70
2019-03-15T09:37:35.718Z,9.80
2019-03-15T09:41:54.223Z,9.90
2019-03-15T09:46:12.527Z,9.90
2019-03-15T09:50:39.909Z,10.00
2019-03-15T09:54:50.992Z,10.00
2019-03-15T09:59:09.077Z,10.10
2019-03-15T10:03:27.338Z,10.10
2019-03-15T10:07:45.534Z,10.20
2019-03-15T10:12:06.143Z,10.20
2019-03-15T10:16:24.338Z,10.30
2019-03-15T10:20:45.481Z,10.30
2019-03-15T10:25:03.823Z,10.40
2019-03-15T10:29:21.996Z,10.40
2019-03-15T10:33:50.195Z,10.50
2019-03-15T10:38:01.822Z,10.60
2019-03-15T10:42:20.044Z,10.60
2019-03-15T10:46:38.506Z,10.70
2019-03-15T10:50:56.784Z,10.80
2019-03-15T10:55:15.367Z,10.90
2019-03-15T10:59:33.680Z,11.00
2019-03-15T11:03:51.980Z,11.10
2019-03-15T11:08:10.257Z,11.20
2019-03-15T11:12:29.267Z,11.30
2019-03-15T11:16:47.952Z,11.30
2019-03-15T11:21:06.648Z,11.40
2019-03-15T11:25:25.289Z,11.50
2019-03-15T11:29:43.888Z,11.60
2019-03-15T11:34:02.066Z,11.70
2019-03-15T11:38:20.412Z,11.70
2019-03-15T11:42:38.644Z,11.80
2019-03-15T11:46:56.903Z,11.90
2019-03-15T11:51:15.154Z,11.90
2019-03-15T11:55:33.721Z,12.00
2019-03-15T11:59:51.828Z,12.10
2019-03-15T12:04:10.331Z,12.20
2019-03-15T12:08:28.428Z,12.30
2019-03-15T12:12:46.663Z,12.30
2019-03-15T12:17:04.896Z,12.40
2019-03-15T12:21:23.098Z,12.50
2019-03-15T12:25:41.322Z,12.60
2019-03-15T12:29:59.510Z,12.60
2019-03-15T12:34:17.693Z,12.70
2019-03-15T12:38:35.980Z,12.70
2019-03-15T12:42:54.011Z,12.80
2019-03-15T12:47:13.027Z,12.80
2019-03-15T12:51:32.532Z,12.90
2019-03-15T12:55:50.914Z,12.90
2019-03-15T13:00:12.399Z,12.90
2019-03-15T13:04:30.779Z,13.00
2019-03-15T13:08:49.312Z,13.00
2019-03-15T13:13:07.378Z,13.00
2019-03-15T13:17:25.993Z,13.00
2019-03-15T13:21:44.196Z,13.10
2019-03-15T13:26:02.419Z,13.10
2019-03-15T13:30:20.440Z,13.10
2019-03-15T13:34:38.644Z,13.10
2019-03-15T13:38:56.919Z,13.10
2019-03-15T13:43:16.203Z,13.20
2019-03-15T13:47:34.713Z,13.20
2019-03-15T13:51:53.370Z,13.30
2019-03-15T13:56:11.586Z,13.30
2019-03-15T14:00:29.641Z,13.30
2019-03-15T14:04:48.328Z,13.40
2019-03-15T14:09:09.145Z,13.40
2019-03-15T14:13:27.204Z,13.50
2019-03-15T14:17:45.367Z,13.50
2019-03-15T14:22:06.091Z,13.60
2019-03-15T14:26:24.091Z,13.60
2019-03-15T14:30:42.564Z,13.60
2019-03-15T14:35:02.074Z,13.60
2019-03-15T14:39:20.924Z,13.60
2019-03-15T14:43:39.423Z,13.70
2019-03-15T14:47:57.856Z,13.70
2019-03-15T14:52:16.049Z,13.70
2019-03-15T14:56:34.243Z,13.70
2019-03-15T15:00:52.820Z,13.70
2019-03-15T15:05:12.910Z,13.80
2019-03-15T15:09:32.709Z,13.80
2019-03-15T15:13:51.394Z,13.80
2019-03-15T15:18:09.967Z,13.80
2019-03-15T15:22:28.898Z,13.80
2019-03-15T15:26:51.232Z,13.90
2019-03-15T15:31:09.414Z,13.90
2019-03-15T15:35:28.262Z,14.00
2019-03-15T15:39:46.611Z,14.00
2019-03-15T15:44:04.842Z,14.00
2019-03-15T15:48:23.012Z,14.10
2019-03-15T15:52:41.327Z,14.10
2019-03-15T15:56:59.707Z,14.10
2019-03-15T16:01:18.958Z,14.10
2019-03-15T16:05:37.446Z,14.10
2019-03-15T16:09:55.675Z,14.10
2019-03-15T16:14:14.243Z,14.10
2019-03-15T16:18:32.552Z,14.10
2019-03-15T16:22:51.984Z,14.10
2019-03-15T16:27:10.637Z,14.10
2019-03-15T16:31:28.820Z,14.10
2019-03-15T16:35:47.137Z,14.00
2019-03-15T16:40:05.914Z,14.00
2019-03-15T16:44:24.626Z,14.00
2019-03-15T16:48:42.800Z,14.00
2019-03-15T16:53:01.017Z,14.00
2019-03-15T16:57:20.536Z,14.00
2019-03-15T17:01:39.657Z,14.00
2019-03-15T17:05:57.865Z,13.90
2019-03-15T17:10:16.212Z,13.90
2019-03-15T17:14:34.485Z,13.90
2019-03-15T17:18:53.099Z,13.90
2019-03-15T17:23:11.204Z,13.90
2019-03-15T17:27:29.357Z,13.90
2019-03-15T17:31:47.580Z,13.90
2019-03-15T17:36:05.942Z,13.90
2019-03-15T17:40:24.885Z,13.90
2019-03-15T17:44:43.196Z,13.80
2019-03-15T17:49:01.901Z,13.80
2019-03-15T17:53:20.025Z,13.80
2019-03-15T17:57:38.232Z,13.80
2019-03-15T18:01:56.479Z,13.80
2019-03-15T18:06:14.910Z,13.80
2019-03-15T18:10:34.180Z,13.80
2019-03-15T18:14:52.330Z,13.80
2019-03-15T18:19:10.985Z,13.80
2019-03-15T18:23:30.483Z,13.80
2019-03-15T18:27:49.956Z,13.80
2019-03-15T18:32:08.033Z,13.80
2019-03-15T18:36:26.170Z,13.80
2019-03-15T18:40:44.656Z,13.80
2019-03-15T18:45:02.947Z,13.80
2019-03-15T18:49:21.460Z,13.80
2019-03-15T18:53:39.661Z,13.80
2019-03-15T18:57:57.985Z,13.80
2019-03-15T19:02:16.249Z,13.80
2019-03-15T19:06:34.804Z,13.80
2019-03-15T19:10:53.060Z,13.80
2019-03-15T19:15:13.476Z,13.80
2019-03-15T19:19:31.495Z,13.80
2019-03-15T19:23:49.702Z,13.80
2019-03-15T19:28:08.240Z,13.80
2019-03-15T19:32:26.596Z,13.80
2019-03-15T19:36:45.049Z,13.80
2019-03-15T19:41:03.555Z,13.80
2019-03-15T19:45:21.672Z,13.80
2019-03-15T19:49:39.841Z,13.80
2019-03-15T19:53:59.265Z,13.80
2019-03-15T19:58:18.791Z,13.80
2019-03-15T20:02:37.488Z,13.80
2019-03-15T20:06:55.773Z,13.80
2019-03-15T20:11:14.267Z,13.80
2019-03-15T20:15:32.861Z,13.80
2019-03-15T20:19:51.486Z,13.80
2019-03-15T20:24:09.817Z,13.80
2019-03-15T20:28:28.073Z,13.70
2019-03-15T20:32:48.497Z,13.70
2019-03-15T20:37:06.480Z,13.60
2019-03-15T20:41:24.761Z,13.60
2019-03-15T20:45:43.007Z,13.50
2019-03-15T20:50:01.931Z,13.50
2019-03-15T20:54:20.097Z,13.50
2019-03-15T20:58:39.010Z,13.50
2019-03-15T21:02:57.539Z,13.50
2019-03-15T21:07:15.777Z,13.40
2019-03-15T21:11:34.261Z,13.40
2019-03-15T21:15:52.762Z,13.40
2019-03-15T21:20:12.261Z,13.30
2019-03-15T21:24:30.450Z,13.30
2019-03-15T21:28:49.274Z,13.30
2019-03-15T21:33:07.305Z,13.20
2019-03-15T21:37:25.497Z,13.20
2019-03-15T21:41:43.669Z,13.20
2019-03-15T21:46:01.829Z,13.20
2019-03-15T21:50:20.391Z,13.20
2019-03-15T21:54:38.629Z,13.20
2019-03-15T21:58:56.913Z,13.20
2019-03-15T22:03:15.092Z,13.20
2019-03-15T22:07:33.525Z,13.20
2019-03-15T22:11:51.643Z,13.20
2019-03-15T22:16:09.834Z,13.20
2019-03-15T22:20:28.586Z,13.20
2019-03-15T22:24:47.509Z,13.10
2019-03-15T22:29:05.684Z,13.10
2019-03-15T22:33:24.303Z,13.10
2019-03-15T22:37:43.402Z,13.10
2019-03-15T22:42:01.622Z,13.10
2019-03-15T22:46:19.796Z,13.10
2019-03-15T22:50:38.326Z,13.10
2019-03-15T22:54:56.499Z,13.10
2019-03-15T22:59:14.750Z,13.10
2019-03-15T23:03:33.098Z,13.10
2019-03-15T23:07:51.267Z,13.10
2019-03-15T23:12:09.340Z,13.10
2019-03-15T23:16:27.736Z,13.00
2019-03-15T23:20:45.967Z,13.00
2019-03-15T23:25:04.580Z,13.00
2019-03-15T23:29:22.815Z,12.90
2019-03-15T23:33:41.166Z,12.90
2019-03-15T23:37:59.251Z,12.90
2019-03-15T23:42:17.419Z,12.90
2019-03-15T23:46:35.569Z,12.90
2019-03-15T23:50:54.202Z,12.80
2019-03-15T23:55:12.291Z,12.80
2019-03-15T23:59:31.221Z,12.80
